Terminal Aerodrome Forecast
Issued by NWS

Home | Current Version | Previous Version | Graphics & Text | Print | Product List | Glossary On
Versions: 1 2 3 4 5 6 7 8 9 10 11 12 13 14 15 16 17
000
FTUS43 KABR 300527
TAFATY
TAF
KATY 300527Z 3006/0106 VRB05KT P6SM BKN200
     FM301600 06019G27KT P6SM BKN150
     FM010100 05013KT P6SM BKN150=

USA.gov is the U.S. government's official web portal to all federal, state and local government web resources and services.